Time;durP1;ratioP1;P1;durP2;ratioP2;P2;SDS_P1;SDS_P2;PMS_P1;PMS_P2;Temp;Humidity;BMP_temperature;BMP_pressure;BME280_temperature;BME280_humidity;BME280_pressure;Samples;Min_cycle;Max_cycle;Signal;HPM_P1;HPM_P2
2023/03/09 00:00:08;;;;;;;;;;;;;;;;;;5015643;28;19921;-79
2023/03/09 00:02:55;;;;;;;;;;;;;;;;;;5023233;28;19917;-79
2023/03/09 00:05:42;;;;;;;;;;;;;;;;;;5016159;28;20552;-79
2023/03/09 00:08:28;;;;;;;;;;;;;;;;;;5021337;28;19928;-79
2023/03/09 00:11:14;;;;;;;;;;;;;;;;;;5016770;28;19918;-79
2023/03/09 00:14:01;;;;;;;;;;;;;;;;;;5015552;28;19924;-80
2023/03/09 00:16:47;;;;;;;;;;;;;;;;;;5019006;28;19933;-80
2023/03/09 00:19:34;;;;;;;;;;;;;;;;;;5020325;28;19923;-80
2023/03/09 00:22:20;;;;;;;;;;;;;;;;;;5021347;28;19921;-79
2023/03/09 00:25:07;;;;;;;;;;;;;;;;;;5019106;28;19928;-78
2023/03/09 00:27:54;;;;;;;;;;;;;;;;;;5011971;28;19921;-79
2023/03/09 00:30:40;;;;;;;;;;;;;;;;;;5023268;28;19917;-79
2023/03/09 00:33:27;;;;;;;;;;;;;;;;;;5019895;28;20459;-79
2023/03/09 00:36:13;;;;;;;;;;;;;;;;;;5014315;28;20415;-80
2023/03/09 00:39:00;;;;;;;;;;;;;;;;;;5014988;28;19932;-79
2023/03/09 00:41:46;;;;;;;;;;;;;;;;;;5009764;28;19924;-80
2023/03/09 00:44:32;;;;;;;;;;;;;;;;;;5014110;28;20288;-80
2023/03/09 00:47:19;;;;;;;;;;;;;;;;;;5013822;28;19925;-79
2023/03/09 00:50:06;;;;;;;;;;;;;;;;;;5016478;28;19948;-79
2023/03/09 00:52:52;;;;;;;;;;;;;;;;;;5019341;28;19962;-81
2023/03/09 00:55:38;;;;;;;;;;;;;;;;;;5009963;28;19925;-81
2023/03/09 00:58:25;;;;;;;;;;;;;;;;;;5008131;28;19930;-80
2023/03/09 01:01:11;;;;;;;;;;;;;;;;;;5015905;28;19917;-79
2023/03/09 01:03:58;;;;;;;;;;;;;;;;;;5017608;28;19925;-79
2023/03/09 01:06:44;;;;;;;;;;;;;;;;;;5015947;28;19924;-80
2023/03/09 01:09:31;;;;;;;;;;;;;;;;;;5011326;28;19917;-79
2023/03/09 01:12:17;;;;;;;;;;;;;;;;;;5009590;28;20003;-79
2023/03/09 01:15:04;;;;;;;;;;;;;;;;;;5020853;28;19927;-79
2023/03/09 01:17:50;;;;;;;;;;;;;;;;;;5021900;28;19913;-79
2023/03/09 01:20:37;;;;;;;;;;;;;;;;;;5013013;28;19918;-79
2023/03/09 01:23:23;;;;;;;;;;;;;;;;;;5020862;28;19913;-79
2023/03/09 01:26:10;;;;;;;;;;;;;;;;;;5016521;28;19917;-79
2023/03/09 01:28:56;;;;;;;;;;;;;;;;;;5018016;28;19925;-79
2023/03/09 01:31:43;;;;;;;;;;;;;;;;;;5017870;28;20411;-79
2023/03/09 01:34:29;;;;;;;;;;;;;;;;;;5016478;28;19917;-79
2023/03/09 01:37:16;;;;;;;;;;;;;;;;;;5018862;28;19931;-79
2023/03/09 01:40:05;;;;;;;;;;;;;;;;;;5018478;28;19917;-79
2023/03/09 01:42:51;;;;;;;;;;;;;;;;;;5011504;28;19928;-79
2023/03/09 01:45:38;;;;;;;;;;;;;;;;;;5015984;28;20412;-79
2023/03/09 01:48:24;;;;;;;;;;;;;;;;;;5012915;28;19920;-79
2023/03/09 01:51:11;;;;;;;;;;;;;;;;;;5013277;28;19922;-79
2023/03/09 01:53:57;;;;;;;;;;;;;;;;;;5018112;28;19921;-79
2023/03/09 01:56:44;;;;;;;;;;;;;;;;;;5023942;28;19921;-79
2023/03/09 01:59:30;;;;;;;;;;;;;;;;;;5015947;28;19925;-79
2023/03/09 02:02:17;;;;;;;;;;;;;;;;;;5019233;28;19960;-78
2023/03/09 02:05:04;;;;;;;;;;;;;;;;;;5026431;28;19968;-78
2023/03/09 02:07:50;;;;;;;;;;;;;;;;;;5020021;28;19931;-78
2023/03/09 02:10:37;;;;;;;;;;;;;;;;;;5021507;28;19913;-80
2023/03/09 02:13:23;;;;;;;;;;;;;;;;;;5016375;28;20311;-79
2023/03/09 02:16:10;;;;;;;;;;;;;;;;;;5023895;28;19936;-79
2023/03/09 02:18:56;;;;;;;;;;;;;;;;;;5021610;28;19913;-79
2023/03/09 02:21:43;;;;;;;;;;;;;;;;;;5020110;28;20237;-78
2023/03/09 02:24:29;;;;;;;;;;;;;;;;;;5024876;28;19921;-79
2023/03/09 02:27:16;;;;;;;;;;;;;;;;;;5020002;28;20396;-81
2023/03/09 02:30:02;;;;;;;;;;;;;;;;;;5022618;28;19939;-79
2023/03/09 02:32:49;;;;;;;;;;;;;;;;;;5017190;28;20384;-79
2023/03/09 02:35:35;;;;;;;;;;;;;;;;;;5013855;28;19932;-79
2023/03/09 02:38:21;;;;;;;;;;;;;;;;;;5015878;28;20368;-79
2023/03/09 02:41:08;;;;;;;;;;;;;;;;;;5019865;28;19917;-79
2023/03/09 02:43:54;;;;;;;;;;;;;;;;;;5021698;28;19917;-79
2023/03/09 02:46:41;;;;;;;;;;;;;;;;;;5021560;28;20023;-78
2023/03/09 02:49:27;;;;;;;;;;;;;;;;;;5016419;28;19917;-79
2023/03/09 02:52:14;;;;;;;;;;;;;;;;;;5012930;28;19924;-79
2023/03/09 02:55:00;;;;;;;;;;;;;;;;;;5008185;28;20274;-79
2023/03/09 02:57:47;;;;;;;;;;;;;;;;;;5018668;28;20388;-79
2023/03/09 03:00:33;;;;;;;;;;;;;;;;;;5021586;28;19913;-79
2023/03/09 03:03:20;;;;;;;;;;;;;;;;;;5015825;28;19924;-79
2023/03/09 03:06:06;;;;;;;;;;;;;;;;;;5023969;28;19914;-80
2023/03/09 03:08:53;;;;;;;;;;;;;;;;;;5013509;28;19925;-79
2023/03/09 03:11:39;;;;;;;;;;;;;;;;;;5017498;28;19924;-80
2023/03/09 03:14:26;;;;;;;;;;;;;;;;;;5013729;28;20352;-80
2023/03/09 03:17:12;;;;;;;;;;;;;;;;;;5019306;28;19929;-80
2023/03/09 03:19:59;;;;;;;;;;;;;;;;;;5022434;28;19917;-79
2023/03/09 03:22:45;;;;;;;;;;;;;;;;;;5020033;28;19921;-83
2023/03/09 03:25:32;;;;;;;;;;;;;;;;;;5018115;28;20656;-79
2023/03/09 03:28:18;;;;;;;;;;;;;;;;;;5014993;28;19924;-79
2023/03/09 03:31:05;;;;;;;;;;;;;;;;;;5013497;28;19920;-79
2023/03/09 03:33:51;;;;;;;;;;;;;;;;;;5012409;28;19936;-80
2023/03/09 03:36:37;;;;;;;;;;;;;;;;;;5011775;28;19932;-79
2023/03/09 03:39:24;;;;;;;;;;;;;;;;;;5018893;28;19918;-80
2023/03/09 03:42:10;;;;;;;;;;;;;;;;;;5020631;28;20328;-79
2023/03/09 03:44:57;;;;;;;;;;;;;;;;;;5012377;28;19967;-79
2023/03/09 03:47:43;;;;;;;;;;;;;;;;;;5018845;28;19913;-79
2023/03/09 03:50:30;;;;;;;;;;;;;;;;;;5011375;28;19932;-80
2023/03/09 03:53:16;;;;;;;;;;;;;;;;;;5008362;28;19924;-79
2023/03/09 03:56:03;;;;;;;;;;;;;;;;;;5019963;28;19940;-79
2023/03/09 03:58:49;;;;;;;;;;;;;;;;;;5018079;28;19929;-79
2023/03/09 04:01:36;;;;;;;;;;;;;;;;;;5021140;28;20220;-79
2023/03/09 04:04:22;;;;;;;;;;;;;;;;;;5018168;28;19921;-80
2023/03/09 04:07:09;;;;;;;;;;;;;;;;;;5021392;28;19917;-80
2023/03/09 04:09:55;;;;;;;;;;;;;;;;;;5020248;28;19920;-79
2023/03/09 04:12:42;;;;;;;;;;;;;;;;;;5022010;28;19924;-80
2023/03/09 04:15:28;;;;;;;;;;;;;;;;;;5015971;28;19929;-80
2023/03/09 04:18:15;;;;;;;;;;;;;;;;;;5012626;28;19941;-79
2023/03/09 04:21:01;;;;;;;;;;;;;;;;;;5021847;28;19925;-79
2023/03/09 04:23:48;;;;;;;;;;;;;;;;;;5014612;28;19921;-79
2023/03/09 04:26:36;;;;;;;;;;;;;;;;;;5019480;28;24292;-80
2023/03/09 04:29:23;;;;;;;;;;;;;;;;;;5014388;28;19924;-79
2023/03/09 04:32:09;;;;;;;;;;;;;;;;;;5017067;28;19913;-80
2023/03/09 04:34:56;;;;;;;;;;;;;;;;;;5015493;28;20446;-80
2023/03/09 04:37:45;;;;;;;;;;;;;;;;;;5012664;28;19928;-80
2023/03/09 04:40:32;;;;;;;;;;;;;;;;;;5010360;28;19917;-79
2023/03/09 04:43:18;;;;;;;;;;;;;;;;;;5010145;28;19921;-79
2023/03/09 04:46:05;;;;;;;;;;;;;;;;;;5007698;28;19924;-78
2023/03/09 04:48:51;;;;;;;;;;;;;;;;;;5009652;28;20483;-76
2023/03/09 04:51:38;;;;;;;;;;;;;;;;;;5010412;28;19928;-78
2023/03/09 04:54:24;;;;;;;;;;;;;;;;;;5015336;28;19924;-78
2023/03/09 04:57:11;;;;;;;;;;;;;;;;;;5019982;28;20434;-78
2023/03/09 04:59:57;;;;;;;;;;;;;;;;;;5014785;28;19921;-78
2023/03/09 05:02:44;;;;;;;;;;;;;;;;;;5015676;28;20295;-78
2023/03/09 05:05:30;;;;;;;;;;;;;;;;;;5019932;28;22610;-78
2023/03/09 05:08:17;;;;;;;;;;;;;;;;;;5017855;28;19917;-79
2023/03/09 05:11:03;;;;;;;;;;;;;;;;;;5010532;28;19925;-78
2023/03/09 05:13:50;;;;;;;;;;;;;;;;;;5012534;28;20307;-78
2023/03/09 05:16:36;;;;;;;;;;;;;;;;;;5017614;28;20300;-78
2023/03/09 05:19:23;;;;;;;;;;;;;;;;;;5008722;28;19925;-79
2023/03/09 05:22:10;;;;;;;;;;;;;;;;;;5014151;28;20304;-79
2023/03/09 05:24:56;;;;;;;;;;;;;;;;;;5017245;28;20586;-79
2023/03/09 05:27:43;;;;;;;;;;;;;;;;;;5011117;28;19948;-79
2023/03/09 05:30:29;;;;;;;;;;;;;;;;;;5008962;28;19922;-79
2023/03/09 05:33:16;;;;;;;;;;;;;;;;;;5009140;28;19917;-80
2023/03/09 05:36:02;;;;;;;;;;;;;;;;;;5013395;28;19929;-79
2023/03/09 05:38:48;;;;;;;;;;;;;;;;;;5012371;28;19917;-80
2023/03/09 05:41:35;;;;;;;;;;;;;;;;;;5024366;28;19924;-80
2023/03/09 05:44:22;;;;;;;;;;;;;;;;;;5018804;28;19921;-79
2023/03/09 05:47:09;;;;;;;;;;;;;;;;;;5021085;28;19913;-78
2023/03/09 05:49:55;;;;;;;;;;;;;;;;;;5004530;28;20296;-78
2023/03/09 05:52:42;;;;;;;;;;;;;;;;;;5019718;28;19924;-78
2023/03/09 05:55:28;;;;;;;;;;;;;;;;;;5017150;28;19937;-76
2023/03/09 05:58:15;;;;;;;;;;;;;;;;;;5008006;28;20410;-78
2023/03/09 06:01:01;;;;;;;;;;;;;;;;;;5019084;28;19921;-78
2023/03/09 06:03:48;;;;;;;;;;;;;;;;;;5019863;28;19924;-80
2023/03/09 06:06:35;;;;;;;;;;;;;;;;;;5017871;28;19918;-78
2023/03/09 06:09:21;;;;;;;;;;;;;;;;;;5020389;28;20254;-78
2023/03/09 06:12:08;;;;;;;;;;;;;;;;;;5019440;28;19923;-78
2023/03/09 06:14:54;;;;;;;;;;;;;;;;;;5013566;28;20399;-78
2023/03/09 06:17:41;;;;;;;;;;;;;;;;;;5019494;28;20426;-79
2023/03/09 06:20:27;;;;;;;;;;;;;;;;;;5017254;28;19921;-78
2023/03/09 06:23:14;;;;;;;;;;;;;;;;;;5011201;28;19913;-79
2023/03/09 06:26:00;;;;;;;;;;;;;;;;;;5017172;28;20219;-78
2023/03/09 06:28:47;;;;;;;;;;;;;;;;;;5011895;28;19924;-80
2023/03/09 06:31:33;;;;;;;;;;;;;;;;;;5016812;28;19940;-78
2023/03/09 06:34:20;;;;;;;;;;;;;;;;;;5015799;28;19925;-78
2023/03/09 06:37:06;;;;;;;;;;;;;;;;;;5011046;28;19929;-79
2023/03/09 06:39:53;;;;;;;;;;;;;;;;;;5009034;28;19923;-80
2023/03/09 06:42:40;;;;;;;;;;;;;;;;;;5014191;28;19924;-80
2023/03/09 06:45:26;;;;;;;;;;;;;;;;;;5013106;28;19921;-79
2023/03/09 06:48:13;;;;;;;;;;;;;;;;;;5019449;28;20011;-79
2023/03/09 06:50:59;;;;;;;;;;;;;;;;;;5018313;28;19917;-82
2023/03/09 06:53:46;;;;;;;;;;;;;;;;;;5013053;28;20012;-80
2023/03/09 06:56:32;;;;;;;;;;;;;;;;;;5016814;28;19929;-80
2023/03/09 06:59:18;;;;;;;;;;;;;;;;;;5014209;28;19979;-79
2023/03/09 07:02:05;;;;;;;;;;;;;;;;;;5017993;28;19936;-79
2023/03/09 07:04:52;;;;;;;;;;;;;;;;;;5017963;28;20026;-78
2023/03/09 07:07:39;;;;;;;;;;;;;;;;;;5009612;28;19917;-78
2023/03/09 07:10:25;;;;;;;;;;;;;;;;;;5015038;28;19968;-78
2023/03/09 07:13:12;;;;;;;;;;;;;;;;;;5017662;28;20577;-78
2023/03/09 07:15:59;;;;;;;;;;;;;;;;;;5011246;28;20463;-79
2023/03/09 07:18:45;;;;;;;;;;;;;;;;;;5009038;28;19942;-78
2023/03/09 07:21:32;;;;;;;;;;;;;;;;;;5015353;28;19917;-79
2023/03/09 07:24:18;;;;;;;;;;;;;;;;;;5010583;28;19921;-78
2023/03/09 07:27:05;;;;;;;;;;;;;;;;;;5017595;28;19921;-79
2023/03/09 07:29:51;;;;;;;;;;;;;;;;;;5021203;28;19921;-79
2023/03/09 07:32:38;;;;;;;;;;;;;;;;;;5016479;28;19921;-79
2023/03/09 07:35:24;;;;;;;;;;;;;;;;;;5015352;28;19924;-78
2023/03/09 07:38:11;;;;;;;;;;;;;;;;;;5013545;28;20371;-79
2023/03/09 07:40:57;;;;;;;;;;;;;;;;;;5014226;28;19948;-79
2023/03/09 07:43:44;;;;;;;;;;;;;;;;;;5006657;28;20296;-79
2023/03/09 07:46:30;;;;;;;;;;;;;;;;;;5002724;28;19931;-79
2023/03/09 07:49:18;;;;;;;;;;;;;;;;;;5017994;28;19917;-78
2023/03/09 07:52:04;;;;;;;;;;;;;;;;;;5010181;28;19921;-78
2023/03/09 07:54:51;;;;;;;;;;;;;;;;;;5011042;28;19928;-78
2023/03/09 07:57:38;;;;;;;;;;;;;;;;;;5013639;28;19929;-78
2023/03/09 08:00:27;;;;;;;;;;;;;;;;;;5015388;28;19941;-78
2023/03/09 08:03:14;;;;;;;;;;;;;;;;;;5011883;28;20345;-77
2023/03/09 08:06:00;;;;;;;;;;;;;;;;;;5011347;28;19921;-78
2023/03/09 08:08:47;;;;;;;;;;;;;;;;;;5015601;28;19921;-78
2023/03/09 08:11:33;;;;;;;;;;;;;;;;;;5021799;28;19917;-78
2023/03/09 08:14:20;;;;;;;;;;;;;;;;;;5013522;28;19922;-78
2023/03/09 08:17:06;;;;;;;;;;;;;;;;;;5014079;28;19941;-78
2023/03/09 08:19:53;;;;;;;;;;;;;;;;;;5014132;28;20028;-79
2023/03/09 08:22:39;;;;;;;;;;;;;;;;;;5012432;28;20369;-79
2023/03/09 08:25:26;;;;;;;;;;;;;;;;;;5007074;28;20507;-79
2023/03/09 08:28:13;;;;;;;;;;;;;;;;;;5015873;28;19921;-79
2023/03/09 08:30:59;;;;;;;;;;;;;;;;;;5015716;28;20273;-80
2023/03/09 08:33:46;;;;;;;;;;;;;;;;;;5008777;28;20394;-79
2023/03/09 08:36:32;;;;;;;;;;;;;;;;;;5011564;28;20383;-77
2023/03/09 08:39:19;;;;;;;;;;;;;;;;;;5018392;28;19917;-79
2023/03/09 08:42:06;;;;;;;;;;;;;;;;;;5026242;28;19921;-78
2023/03/09 08:44:52;;;;;;;;;;;;;;;;;;5015407;28;19923;-78
2023/03/09 08:47:39;;;;;;;;;;;;;;;;;;5011625;28;19984;-77
2023/03/09 08:50:25;;;;;;;;;;;;;;;;;;5010198;28;19928;-78
2023/03/09 08:53:12;;;;;;;;;;;;;;;;;;5014754;28;19921;-77
2023/03/09 08:55:58;;;;;;;;;;;;;;;;;;5011203;28;19944;-77
2023/03/09 08:58:45;;;;;;;;;;;;;;;;;;5013823;28;19929;-77
2023/03/09 09:01:31;;;;;;;;;;;;;;;;;;5021261;28;19925;-78
2023/03/09 09:04:18;;;;;;;;;;;;;;;;;;5007595;28;19922;-78
2023/03/09 09:07:05;;;;;;;;;;;;;;;;;;5017567;28;19921;-78
2023/03/09 09:09:51;;;;;;;;;;;;;;;;;;5016582;28;19929;-78
2023/03/09 09:12:38;;;;;;;;;;;;;;;;;;5013031;28;19924;-78
2023/03/09 09:15:24;;;;;;;;;;;;;;;;;;5011144;28;19945;-77
2023/03/09 09:18:11;;;;;;;;;;;;;;;;;;5009999;28;20740;-77
2023/03/09 09:20:58;;;;;;;;;;;;;;;;;;5016040;28;19917;-78
2023/03/09 09:23:44;;;;;;;;;;;;;;;;;;5015013;28;19925;-78
2023/03/09 09:26:31;;;;;;;;;;;;;;;;;;5012343;28;19921;-78
2023/03/09 09:29:17;;;;;;;;;;;;;;;;;;5013986;28;19927;-77
2023/03/09 09:32:04;;;;;;;;;;;;;;;;;;5019138;28;19960;-78
2023/03/09 09:34:52;;;;;;;;;;;;;;;;;;5007988;28;19929;-78
2023/03/09 09:37:41;;;;;;;;;;;;;;;;;;5009313;28;19929;-78
2023/03/09 09:40:27;;;;;;;;;;;;;;;;;;5011862;28;19922;-79
2023/03/09 09:43:13;;;;;;;;;;;;;;;;;;5010989;28;20321;-78
2023/03/09 09:46:00;;;;;;;;;;;;;;;;;;5011937;28;19928;-79
2023/03/09 09:48:46;;;;;;;;;;;;;;;;;;5009457;28;19921;-79
2023/03/09 09:51:33;;;;;;;;;;;;;;;;;;5014909;28;19925;-79
2023/03/09 09:54:19;;;;;;;;;;;;;;;;;;5012531;28;19940;-80
2023/03/09 09:57:06;;;;;;;;;;;;;;;;;;5016575;28;19929;-79
2023/03/09 09:59:52;;;;;;;;;;;;;;;;;;5018100;28;19936;-79
2023/03/09 10:02:39;;;;;;;;;;;;;;;;;;5012432;28;19921;-79
2023/03/09 10:05:25;;;;;;;;;;;;;;;;;;5014133;28;19936;-79
2023/03/09 10:08:12;;;;;;;;;;;;;;;;;;5016166;28;19928;-78
2023/03/09 10:10:58;;;;;;;;;;;;;;;;;;5008699;28;19956;-79
2023/03/09 10:13:45;;;;;;;;;;;;;;;;;;5010684;28;19928;-79
2023/03/09 10:16:31;;;;;;;;;;;;;;;;;;5015741;28;19933;-79
2023/03/09 10:19:18;;;;;;;;;;;;;;;;;;5016310;28;19936;-78
2023/03/09 10:22:05;;;;;;;;;;;;;;;;;;5017460;28;19924;-79
2023/03/09 10:24:51;;;;;;;;;;;;;;;;;;5013316;28;19922;-79
2023/03/09 10:27:38;;;;;;;;;;;;;;;;;;5014320;28;19921;-79
2023/03/09 10:30:24;;;;;;;;;;;;;;;;;;5017946;28;19917;-79
2023/03/09 10:33:11;;;;;;;;;;;;;;;;;;5018923;28;19926;-78
2023/03/09 10:35:57;;;;;;;;;;;;;;;;;;5015893;28;19921;-79
2023/03/09 10:38:44;;;;;;;;;;;;;;;;;;5020797;28;19936;-80
2023/03/09 10:41:30;;;;;;;;;;;;;;;;;;5014222;28;19952;-79
2023/03/09 10:44:17;;;;;;;;;;;;;;;;;;5010825;28;20487;-79
2023/03/09 10:47:03;;;;;;;;;;;;;;;;;;5011415;28;19928;-79
2023/03/09 10:49:50;;;;;;;;;;;;;;;;;;5015919;28;19921;-79
2023/03/09 10:52:36;;;;;;;;;;;;;;;;;;5013021;28;19944;-79
2023/03/09 10:55:23;;;;;;;;;;;;;;;;;;4960357;28;19946;-79
2023/03/09 10:58:09;;;;;;;;;;;;;;;;;;5020768;28;19930;-79
2023/03/09 11:00:56;;;;;;;;;;;;;;;;;;4997757;28;19922;-79
2023/03/09 11:03:42;;;;;;;;;;;;;;;;;;5010934;28;19921;-80
2023/03/09 11:06:29;;;;;;;;;;;;;;;;;;4984023;28;20384;-79
2023/03/09 11:09:16;;;;;;;;;;;;;;;;;;5018868;28;19917;-79
2023/03/09 11:12:02;;;;;;;;;;;;;;;;;;5015444;28;20023;-78
2023/03/09 11:14:49;;;;;;;;;;;;;;;;;;5004458;28;19921;-78
2023/03/09 11:17:35;;;;;;;;;;;;;;;;;;5010986;28;19933;-78
2023/03/09 11:20:25;;;;;;;;;;;;;;;;;;5012357;28;20471;-78
2023/03/09 11:23:12;;;;;;;;;;;;;;;;;;5011645;28;19921;-78
2023/03/09 11:26:00;;;;;;;;;;;;;;;;;;5013467;28;20583;-78
2023/03/09 11:28:47;;;;;;;;;;;;;;;;;;5017649;28;19913;-78
2023/03/09 11:31:33;;;;;;;;;;;;;;;;;;5021107;28;20276;-78
2023/03/09 11:34:20;;;;;;;;;;;;;;;;;;5013365;28;19917;-78
2023/03/09 11:37:06;;;;;;;;;;;;;;;;;;5012989;28;19959;-78
2023/03/09 11:39:53;;;;;;;;;;;;;;;;;;5010260;28;19929;-79
2023/03/09 11:42:39;;;;;;;;;;;;;;;;;;5016721;28;19917;-79
2023/03/09 11:45:28;;;;;;;;;;;;;;;;;;5015098;28;19921;-79
2023/03/09 11:48:14;;;;;;;;;;;;;;;;;;5010504;28;20020;-78
2023/03/09 11:51:01;;;;;;;;;;;;;;;;;;5011735;28;19931;-79
2023/03/09 11:53:48;;;;;;;;;;;;;;;;;;5014326;28;19925;-78
2023/03/09 11:56:34;;;;;;;;;;;;;;;;;;5013192;28;19936;-80
2023/03/09 11:59:21;;;;;;;;;;;;;;;;;;5009924;28;19956;-80
2023/03/09 12:02:07;;;;;;;;;;;;;;;;;;5021661;28;20325;-80
2023/03/09 12:04:54;;;;;;;;;;;;;;;;;;5015625;28;19925;-80
2023/03/09 12:07:40;;;;;;;;;;;;;;;;;;5012005;28;19925;-80
2023/03/09 12:10:27;;;;;;;;;;;;;;;;;;5012404;28;19980;-79
2023/03/09 12:13:13;;;;;;;;;;;;;;;;;;5014029;28;19982;-79
2023/03/09 12:16:00;;;;;;;;;;;;;;;;;;5014545;28;19928;-80
2023/03/09 12:18:47;;;;;;;;;;;;;;;;;;5011924;28;19921;-79
2023/03/09 12:21:33;;;;;;;;;;;;;;;;;;5012008;28;19921;-80
2023/03/09 12:24:20;;;;;;;;;;;;;;;;;;5008752;28;20590;-79
2023/03/09 12:27:06;;;;;;;;;;;;;;;;;;5011475;28;19925;-79
2023/03/09 12:29:53;;;;;;;;;;;;;;;;;;5014025;28;20377;-79
2023/03/09 12:32:39;;;;;;;;;;;;;;;;;;5011703;28;20403;-78
2023/03/09 12:35:26;;;;;;;;;;;;;;;;;;5015019;28;19928;-79
2023/03/09 12:38:12;;;;;;;;;;;;;;;;;;5016678;28;19929;-79
2023/03/09 12:40:59;;;;;;;;;;;;;;;;;;5014418;28;19928;-79
2023/03/09 12:43:47;;;;;;;;;;;;;;;;;;5010349;28;20394;-79
2023/03/09 12:46:33;;;;;;;;;;;;;;;;;;5014480;28;20336;-79
2023/03/09 12:49:20;;;;;;;;;;;;;;;;;;5016445;28;19917;-79
2023/03/09 12:52:06;;;;;;;;;;;;;;;;;;5011748;28;19924;-79
2023/03/09 12:54:53;;;;;;;;;;;;;;;;;;5015415;28;19924;-79
2023/03/09 12:57:40;;;;;;;;;;;;;;;;;;5011979;28;19933;-78
2023/03/09 13:00:27;;;;;;;;;;;;;;;;;;5011369;28;19917;-79
2023/03/09 13:03:14;;;;;;;;;;;;;;;;;;5011368;28;19921;-79
2023/03/09 13:06:00;;;;;;;;;;;;;;;;;;5014726;28;19917;-79
2023/03/09 13:08:49;;;;;;;;;;;;;;;;;;5010200;28;20027;-79
2023/03/09 13:11:37;;;;;;;;;;;;;;;;;;5009195;28;19933;-81
2023/03/09 13:14:24;;;;;;;;;;;;;;;;;;5008535;28;19946;-81
2023/03/09 13:17:10;;;;;;;;;;;;;;;;;;5013418;28;19940;-78
2023/03/09 13:19:57;;;;;;;;;;;;;;;;;;5014927;28;19921;-78
2023/03/09 13:22:43;;;;;;;;;;;;;;;;;;5015486;28;20476;-77
2023/03/09 13:25:30;;;;;;;;;;;;;;;;;;5013285;28;19928;-78
2023/03/09 13:28:16;;;;;;;;;;;;;;;;;;5018393;28;19917;-78
2023/03/09 13:31:03;;;;;;;;;;;;;;;;;;5017093;28;19944;-78
2023/03/09 13:33:50;;;;;;;;;;;;;;;;;;5011387;28;19974;-79
2023/03/09 13:36:36;;;;;;;;;;;;;;;;;;5015534;28;19967;-79
2023/03/09 13:39:24;;;;;;;;;;;;;;;;;;5010481;28;20663;-79
2023/03/09 13:42:10;;;;;;;;;;;;;;;;;;5010799;28;19913;-79
2023/03/09 13:44:57;;;;;;;;;;;;;;;;;;5010160;28;20404;-79
2023/03/09 13:47:43;;;;;;;;;;;;;;;;;;5009944;28;19927;-80
2023/03/09 13:50:33;;;;;;;;;;;;;;;;;;5010502;28;19921;-79
2023/03/09 13:53:19;;;;;;;;;;;;;;;;;;5014933;28;19925;-79
2023/03/09 13:56:06;;;;;;;;;;;;;;;;;;5012648;28;19937;-77
2023/03/09 13:58:52;;;;;;;;;;;;;;;;;;5011854;28;20301;-79
2023/03/09 14:01:39;;;;;;;;;;;;;;;;;;5010895;28;19924;-78
2023/03/09 14:04:26;;;;;;;;;;;;;;;;;;5021494;28;19917;-79
2023/03/09 14:07:12;;;;;;;;;;;;;;;;;;5016207;28;19932;-79
2023/03/09 14:09:58;;;;;;;;;;;;;;;;;;5010391;28;20479;-78
2023/03/09 14:12:46;;;;;;;;;;;;;;;;;;5013074;28;19932;-78
2023/03/09 14:15:33;;;;;;;;;;;;;;;;;;5018774;28;19990;-78
2023/03/09 14:18:19;;;;;;;;;;;;;;;;;;5010045;28;19937;-78
2023/03/09 14:21:06;;;;;;;;;;;;;;;;;;5011500;28;19921;-78
2023/03/09 14:23:52;;;;;;;;;;;;;;;;;;5013069;28;19940;-77
2023/03/09 14:26:39;;;;;;;;;;;;;;;;;;5013046;28;19945;-78
2023/03/09 14:29:26;;;;;;;;;;;;;;;;;;5011902;28;19952;-77
2023/03/09 14:32:12;;;;;;;;;;;;;;;;;;5017477;28;20425;-81
2023/03/09 14:34:59;;;;;;;;;;;;;;;;;;5011168;28;19924;-81
2023/03/09 14:37:45;;;;;;;;;;;;;;;;;;5016360;28;19936;-82
2023/03/09 14:40:32;;;;;;;;;;;;;;;;;;5018671;28;19951;-82
2023/03/09 14:43:18;;;;;;;;;;;;;;;;;;5015463;28;19964;-81
2023/03/09 14:46:05;;;;;;;;;;;;;;;;;;5017119;28;19918;-83
2023/03/09 14:48:51;;;;;;;;;;;;;;;;;;5010017;28;19921;-78
2023/03/09 14:51:38;;;;;;;;;;;;;;;;;;5011864;28;19937;-78
2023/03/09 14:54:24;;;;;;;;;;;;;;;;;;5015264;28;20495;-79
2023/03/09 14:57:11;;;;;;;;;;;;;;;;;;5019788;28;19933;-82
2023/03/09 14:59:57;;;;;;;;;;;;;;;;;;5013873;28;19929;-84
2023/03/09 15:02:44;;;;;;;;;;;;;;;;;;5017478;28;19989;-85
2023/03/09 15:05:30;;;;;;;;;;;;;;;;;;5016335;28;19921;-87
2023/03/09 15:08:17;;;;;;;;;;;;;;;;;;5013811;28;19944;-88
2023/03/09 15:11:03;;;;;;;;;;;;;;;;;;5015203;28;19925;-87
2023/03/09 15:13:50;;;;;;;;;;;;;;;;;;5011571;28;19940;-86
2023/03/09 15:16:36;;;;;;;;;;;;;;;;;;5014249;28;20328;-86
2023/03/09 15:19:23;;;;;;;;;;;;;;;;;;5016618;28;19925;-87
2023/03/09 15:22:09;;;;;;;;;;;;;;;;;;5020327;28;19920;-86
2023/03/09 15:24:56;;;;;;;;;;;;;;;;;;5013915;28;19932;-88
2023/03/09 15:27:42;;;;;;;;;;;;;;;;;;5016272;28;19921;-86
2023/03/09 15:30:29;;;;;;;;;;;;;;;;;;5009562;28;20433;-86
2023/03/09 15:33:15;;;;;;;;;;;;;;;;;;5008961;28;19913;-82
2023/03/09 15:36:02;;;;;;;;;;;;;;;;;;5019629;28;19922;-87
2023/03/09 15:38:48;;;;;;;;;;;;;;;;;;5016223;28;19935;-87
2023/03/09 15:41:35;;;;;;;;;;;;;;;;;;5010867;28;25347;-85
2023/03/09 15:44:21;;;;;;;;;;;;;;;;;;5012266;28;19923;-86
2023/03/09 15:47:08;;;;;;;;;;;;;;;;;;5009757;28;19918;-84
2023/03/09 15:49:54;;;;;;;;;;;;;;;;;;5014227;28;20545;-84
2023/03/09 15:52:41;;;;;;;;;;;;;;;;;;5017897;28;19921;-83
2023/03/09 15:55:29;;;;;;;;;;;;;;;;;;5010847;28;19960;-84
2023/03/09 15:58:15;;;;;;;;;;;;;;;;;;5014352;28;19932;-83
2023/03/09 16:01:02;;;;;;;;;;;;;;;;;;5014141;28;19922;-83
2023/03/09 16:03:52;;;;;;;;;;;;;;;;;;5015246;28;20544;-84
2023/03/09 16:06:38;;;;;;;;;;;;;;;;;;5013412;28;19925;-84
2023/03/09 16:09:26;;;;;;;;;;;;;;;;;;5009209;28;20476;-84
2023/03/09 16:12:13;;;;;;;;;;;;;;;;;;5011157;28;19926;-84
2023/03/09 16:14:59;;;;;;;;;;;;;;;;;;5012388;28;19928;-85
2023/03/09 16:17:46;;;;;;;;;;;;;;;;;;5019746;28;20383;-85
2023/03/09 16:20:33;;;;;;;;;;;;;;;;;;5017380;28;19928;-86
2023/03/09 16:23:19;;;;;;;;;;;;;;;;;;5014244;28;19918;-86
2023/03/09 16:26:06;;;;;;;;;;;;;;;;;;5014945;28;19924;-82
2023/03/09 16:28:52;;;;;;;;;;;;;;;;;;5013547;28;20380;-83
2023/03/09 16:31:39;;;;;;;;;;;;;;;;;;5019098;28;19921;-84
2023/03/09 16:34:25;;;;;;;;;;;;;;;;;;5021926;28;19921;-83
2023/03/09 16:37:12;;;;;;;;;;;;;;;;;;5014549;28;19936;-82
2023/03/09 16:39:58;;;;;;;;;;;;;;;;;;5021841;28;19921;-83
2023/03/09 16:42:45;;;;;;;;;;;;;;;;;;5012096;28;20356;-82
2023/03/09 16:45:31;;;;;;;;;;;;;;;;;;5009379;28;19924;-82
2023/03/09 16:48:18;;;;;;;;;;;;;;;;;;5015479;28;20328;-81
2023/03/09 16:51:04;;;;;;;;;;;;;;;;;;5016390;28;20416;-81
2023/03/09 16:53:51;;;;;;;;;;;;;;;;;;5009670;28;19928;-82
2023/03/09 16:56:37;;;;;;;;;;;;;;;;;;5016522;28;19913;-82
2023/03/09 16:59:24;;;;;;;;;;;;;;;;;;5014095;28;20494;-83
2023/03/09 17:02:10;;;;;;;;;;;;;;;;;;5017296;28;19922;-83
2023/03/09 17:04:57;;;;;;;;;;;;;;;;;;5015085;28;19940;-83
2023/03/09 17:07:43;;;;;;;;;;;;;;;;;;5015524;28;19917;-82
2023/03/09 17:10:30;;;;;;;;;;;;;;;;;;5007674;28;19925;-82
2023/03/09 17:13:16;;;;;;;;;;;;;;;;;;5018343;28;19917;-82
2023/03/09 17:16:02;;;;;;;;;;;;;;;;;;5018704;28;20764;-83
2023/03/09 17:18:49;;;;;;;;;;;;;;;;;;5008940;28;19929;-82
2023/03/09 17:21:35;;;;;;;;;;;;;;;;;;5018356;28;19927;-82
2023/03/09 17:24:22;;;;;;;;;;;;;;;;;;5010930;28;19925;-81
2023/03/09 17:27:08;;;;;;;;;;;;;;;;;;5010760;28;19921;-81
2023/03/09 17:29:55;;;;;;;;;;;;;;;;;;5013378;28;20344;-80
2023/03/09 17:32:41;;;;;;;;;;;;;;;;;;5018728;28;19943;-81
2023/03/09 17:35:28;;;;;;;;;;;;;;;;;;5009744;28;19921;-80
2023/03/09 17:38:14;;;;;;;;;;;;;;;;;;5014863;28;19936;-81
2023/03/09 17:41:02;;;;;;;;;;;;;;;;;;5016267;28;19917;-81
2023/03/09 17:43:48;;;;;;;;;;;;;;;;;;5004313;28;19925;-81
2023/03/09 17:46:35;;;;;;;;;;;;;;;;;;5016266;28;19925;-78
2023/03/09 17:49:21;;;;;;;;;;;;;;;;;;5018649;28;19917;-82
2023/03/09 17:52:08;;;;;;;;;;;;;;;;;;5009277;28;19927;-87
2023/03/09 17:54:54;;;;;;;;;;;;;;;;;;5005983;28;19917;-87
2023/03/09 17:57:41;;;;;;;;;;;;;;;;;;5009834;28;19932;-88
2023/03/09 18:00:27;;;;;;;;;;;;;;;;;;5007103;28;19920;-87
2023/03/09 18:03:14;;;;;;;;;;;;;;;;;;5016083;28;20384;-86
2023/03/09 18:06:00;;;;;;;;;;;;;;;;;;5012537;28;19924;-86
2023/03/09 18:08:47;;;;;;;;;;;;;;;;;;5011205;28;19917;-87
2023/03/09 18:11:34;;;;;;;;;;;;;;;;;;5009334;28;19951;-87
2023/03/09 18:14:20;;;;;;;;;;;;;;;;;;5012251;28;19913;-86
2023/03/09 18:17:07;;;;;;;;;;;;;;;;;;5011233;28;19925;-86
2023/03/09 18:19:53;;;;;;;;;;;;;;;;;;5010768;28;19918;-86
2023/03/09 18:22:40;;;;;;;;;;;;;;;;;;5010546;28;19921;-84
2023/03/09 18:25:26;;;;;;;;;;;;;;;;;;5004329;28;20270;-84
2023/03/09 18:28:13;;;;;;;;;;;;;;;;;;5013332;28;19922;-83
2023/03/09 18:30:59;;;;;;;;;;;;;;;;;;5010220;28;19924;-84
2023/03/09 18:33:45;;;;;;;;;;;;;;;;;;5011865;28;20637;-84
2023/03/09 18:36:32;;;;;;;;;;;;;;;;;;5010147;28;19920;-84
2023/03/09 18:39:18;;;;;;;;;;;;;;;;;;5013192;28;20369;-84
2023/03/09 18:42:05;;;;;;;;;;;;;;;;;;5013947;28;19928;-85
2023/03/09 18:44:51;;;;;;;;;;;;;;;;;;5016689;28;20364;-84
2023/03/09 18:47:38;;;;;;;;;;;;;;;;;;5008238;28;19922;-84
2023/03/09 18:50:24;;;;;;;;;;;;;;;;;;5020123;28;19924;-85
2023/03/09 18:53:11;;;;;;;;;;;;;;;;;;5023032;28;19936;-84
2023/03/09 18:55:57;;;;;;;;;;;;;;;;;;5017493;28;19917;-84